createdAt,value
2022-08-07T04:00:30.569Z,28.00
2022-08-07T04:01:29.897Z,28.00
2022-08-07T04:02:29.848Z,28.00
2022-08-07T04:03:29.845Z,32.00
2022-08-07T04:04:32.648Z,36.00
2022-08-07T04:05:41.160Z,40.00
2022-08-07T04:06:37.442Z,40.00
2022-08-07T04:07:36.153Z,44.00
2022-08-07T04:08:30.826Z,48.00
2022-08-07T04:09:45.471Z,56.00
2022-08-07T04:10:30.754Z,60.00
2022-08-07T04:12:23.367Z,64.00
2022-08-07T04:12:30.747Z,68.00
2022-08-07T04:13:29.722Z,72.00
2022-08-07T04:14:38.018Z,80.00
2022-08-07T04:15:30.696Z,84.00
2022-08-07T04:16:31.007Z,88.00
2022-08-07T04:17:31.061Z,92.00
2022-08-07T04:18:59.410Z,100.00
2022-08-07T04:19:51.022Z,104.00
2022-08-07T04:20:30.818Z,108.00
2022-08-07T04:21:31.811Z,116.00
2022-08-07T04:22:34.652Z,120.00
2022-08-07T04:23:43.653Z,124.00
2022-08-07T04:24:34.016Z,132.00
2022-08-07T04:25:29.653Z,136.00
2022-08-07T04:26:29.575Z,144.00
2022-08-07T04:27:35.460Z,156.00
2022-08-07T04:28:30.552Z,156.00
2022-08-07T04:29:30.433Z,168.00
2022-08-07T04:30:39.214Z,172.00
2022-08-07T04:31:39.236Z,180.00
2022-08-07T04:32:34.239Z,184.00
2022-08-07T04:33:35.277Z,184.00
2022-08-07T04:34:33.123Z,196.00
2022-08-07T04:35:35.167Z,200.00
2022-08-07T04:36:30.470Z,208.00
2022-08-07T04:37:29.460Z,208.00
2022-08-07T04:38:30.452Z,220.00
2022-08-07T04:39:35.964Z,224.00
2022-08-07T04:40:31.419Z,232.00
2022-08-07T04:41:29.480Z,244.00
2022-08-07T04:42:30.413Z,244.00
2022-08-07T04:44:12.390Z,260.00
2022-08-07T04:44:35.393Z,256.00
2022-08-07T04:45:57.279Z,268.00
2022-08-07T04:46:34.747Z,268.00
2022-08-07T04:48:01.632Z,276.00
2022-08-07T04:48:30.633Z,284.00
2022-08-07T04:49:29.566Z,288.00
2022-08-07T04:50:30.305Z,292.00
2022-08-07T04:51:29.293Z,300.00
2022-08-07T04:52:29.521Z,312.00
2022-08-07T04:54:01.311Z,312.00
2022-08-07T04:54:30.530Z,324.00
2022-08-07T04:58:13.692Z,344.00
2022-08-07T04:58:15.262Z,344.00
2022-08-07T04:58:16.148Z,328.00
2022-08-07T04:58:49.821Z,348.00
2022-08-07T05:00:14.620Z,360.00
2022-08-07T05:00:32.253Z,372.00
2022-08-07T05:01:30.254Z,360.00
2022-08-07T05:02:29.178Z,372.00
2022-08-07T05:04:07.352Z,380.00
2022-08-07T05:04:30.146Z,380.00
2022-08-07T05:05:53.497Z,388.00
2022-08-07T05:06:43.728Z,396.00
2022-08-07T05:07:36.617Z,396.00
2022-08-07T05:09:00.072Z,408.00
2022-08-07T05:09:46.084Z,408.00
2022-08-07T05:10:30.080Z,416.00
2022-08-07T05:11:58.094Z,424.00
2022-08-07T05:12:30.377Z,428.00
2022-08-07T05:14:51.993Z,432.00
2022-08-07T05:14:55.283Z,440.00
2022-08-07T05:15:30.019Z,452.00
2022-08-07T05:16:29.005Z,456.00
2022-08-07T05:17:51.774Z,472.00
2022-08-07T05:18:29.982Z,476.00
2022-08-07T05:19:32.612Z,512.00
2022-08-07T05:20:28.960Z,536.00
2022-08-07T05:22:00.022Z,532.00
2022-08-07T05:22:29.971Z,512.00
2022-08-07T05:23:30.184Z,512.00
2022-08-07T05:24:30.625Z,520.00
2022-08-07T05:25:36.612Z,552.00
2022-08-07T05:26:29.896Z,620.00
2022-08-07T05:28:02.726Z,644.00
2022-08-07T05:28:34.920Z,600.00
2022-08-07T05:29:39.118Z,676.00
2022-08-07T05:30:32.796Z,608.00
2022-08-07T05:31:34.549Z,604.00
2022-08-07T05:32:29.830Z,596.00
2022-08-07T05:33:28.827Z,596.00
2022-08-07T05:34:28.805Z,600.00
2022-08-07T05:35:33.518Z,612.00
2022-08-07T05:36:32.137Z,608.00
2022-08-07T05:37:30.028Z,628.00
2022-08-07T05:39:00.442Z,636.00
2022-08-07T05:40:16.723Z,632.00
2022-08-07T05:40:29.846Z,616.00
2022-08-07T05:42:02.786Z,620.00
2022-08-07T05:42:33.736Z,624.00
2022-08-07T05:43:49.569Z,628.00
2022-08-07T05:44:29.865Z,628.00
2022-08-07T05:45:47.588Z,632.00
2022-08-07T05:46:29.685Z,640.00
2022-08-07T05:47:28.656Z,684.00
2022-08-07T05:48:29.727Z,664.00
2022-08-07T05:49:37.151Z,680.00
2022-08-07T05:50:34.655Z,692.00
2022-08-07T05:51:31.443Z,688.00
2022-08-07T05:52:32.482Z,684.00
2022-08-07T05:54:12.342Z,700.00
2022-08-07T05:54:44.198Z,716.00
2022-08-07T05:56:02.852Z,724.00
2022-08-07T05:56:30.250Z,744.00
2022-08-07T05:57:30.165Z,744.00
2022-08-07T05:58:36.016Z,744.00
2022-08-07T05:59:29.569Z,748.00
2022-08-07T06:00:29.535Z,752.00
2022-08-07T06:01:34.883Z,756.00
2022-08-07T06:02:29.628Z,748.00
2022-08-07T06:03:47.021Z,744.00
2022-08-07T06:04:30.225Z,744.00
2022-08-07T06:05:28.707Z,760.00
2022-08-07T06:06:29.931Z,776.00
2022-08-07T06:08:29.290Z,772.00
2022-08-07T06:08:31.526Z,780.00
2022-08-07T06:09:45.288Z,772.00
2022-08-07T06:10:29.392Z,780.00
2022-08-07T06:11:28.415Z,804.00
2022-08-07T06:12:33.407Z,820.00
2022-08-07T06:14:10.321Z,852.00
2022-08-07T06:14:30.280Z,940.00
2022-08-07T06:15:41.896Z,1076.00
2022-08-07T06:16:29.407Z,1044.00
2022-08-07T06:17:30.582Z,1232.00
2022-08-07T06:18:29.304Z,1192.00
2022-08-07T06:19:51.952Z,976.00
2022-08-07T06:20:49.427Z,864.00
2022-08-07T06:22:15.281Z,884.00
2022-08-07T06:22:29.254Z,960.00
2022-08-07T06:24:38.744Z,1072.00
2022-08-07T06:24:45.614Z,1128.00
2022-08-07T06:25:34.849Z,1040.00
2022-08-07T06:26:29.210Z,1012.00
2022-08-07T06:28:00.623Z,976.00
2022-08-07T06:28:29.191Z,996.00
2022-08-07T06:29:28.188Z,1012.00
2022-08-07T06:30:35.431Z,1064.00
2022-08-07T06:31:47.100Z,1080.00
2022-08-07T06:32:29.417Z,1084.00
2022-08-07T06:33:29.741Z,1176.00
2022-08-07T06:34:33.374Z,1272.00
2022-08-07T06:35:30.521Z,1232.00
2022-08-07T06:36:35.366Z,1192.00
2022-08-07T06:37:43.485Z,1184.00
2022-08-07T06:38:29.079Z,1120.00
2022-08-07T06:40:18.023Z,1096.00
2022-08-07T06:40:34.303Z,1132.00
2022-08-07T06:41:47.557Z,1208.00
2022-08-07T06:42:32.931Z,1352.00
2022-08-07T06:43:32.387Z,1636.00
2022-08-07T06:44:33.860Z,1740.00
2022-08-07T06:45:34.197Z,2244.00
2022-08-07T06:46:35.112Z,1888.00
2022-08-07T06:47:29.140Z,1456.00
2022-08-07T06:48:28.976Z,1116.00
2022-08-07T06:49:28.051Z,1104.00
2022-08-07T06:50:27.945Z,1052.00
2022-08-07T06:51:33.140Z,1120.00
2022-08-07T06:52:31.957Z,1260.00
2022-08-07T06:55:29.297Z,1068.00
2022-08-07T06:55:32.814Z,1112.00
2022-08-07T06:55:53.489Z,1216.00
2022-08-07T06:56:33.897Z,1116.00
2022-08-07T06:57:39.237Z,1120.00
2022-08-07T06:58:28.971Z,1128.00
2022-08-07T07:00:12.087Z,1196.00
2022-08-07T07:00:28.824Z,1124.00
2022-08-07T07:01:33.227Z,1168.00
2022-08-07T07:02:53.657Z,1176.00
2022-08-07T07:03:49.071Z,1248.00
2022-08-07T07:04:33.326Z,1348.00
2022-08-07T07:06:03.685Z,1156.00
2022-08-07T07:06:28.791Z,1164.00
2022-08-07T07:07:59.623Z,1124.00
2022-08-07T07:08:28.960Z,1092.00
2022-08-07T07:09:31.291Z,1092.00
2022-08-07T07:10:27.724Z,1104.00
2022-08-07T07:12:07.575Z,1120.00
2022-08-07T07:12:31.501Z,1148.00
2022-08-07T07:13:55.606Z,1180.00
2022-08-07T07:14:28.666Z,1140.00
2022-08-07T07:15:32.470Z,1264.00
2022-08-07T07:16:30.538Z,1352.00
2022-08-07T07:17:38.625Z,1376.00
2022-08-07T07:18:47.873Z,1372.00
2022-08-07T07:19:56.441Z,1360.00
2022-08-07T07:20:28.609Z,1444.00
2022-08-07T07:21:40.554Z,1428.00
2022-08-07T07:22:36.879Z,1272.00
2022-08-07T07:24:11.189Z,1496.00
2022-08-07T07:24:28.553Z,1200.00
2022-08-07T07:26:34.280Z,1120.00
2022-08-07T07:26:34.280Z,1152.00
2022-08-07T07:27:35.647Z,1120.00
2022-08-07T07:28:29.621Z,1136.00
2022-08-07T07:29:39.660Z,1156.00
2022-08-07T07:30:37.958Z,1132.00
2022-08-07T07:31:30.506Z,1204.00
2022-08-07T07:32:28.468Z,1212.00
2022-08-07T07:33:27.454Z,1212.00
2022-08-07T07:34:31.018Z,1172.00
2022-08-07T07:35:27.439Z,1224.00
2022-08-07T07:36:32.430Z,1164.00
2022-08-07T07:37:47.323Z,1188.00
2022-08-07T07:38:28.477Z,1224.00
2022-08-07T07:39:45.396Z,1216.00
2022-08-07T07:40:33.397Z,1244.00
2022-08-07T07:41:50.383Z,1188.00
2022-08-07T07:42:33.165Z,1188.00
2022-08-07T07:43:48.074Z,1184.00
2022-08-07T07:44:28.339Z,1204.00
2022-08-07T07:46:36.868Z,1268.00
2022-08-07T07:46:40.152Z,1188.00
2022-08-07T07:47:28.299Z,1196.00
2022-08-07T07:48:35.872Z,1204.00
2022-08-07T07:50:31.400Z,1224.00
2022-08-07T07:50:35.521Z,1212.00
2022-08-07T07:51:33.276Z,1220.00
2022-08-07T07:52:28.566Z,1228.00
2022-08-07T07:53:27.239Z,1232.00
2022-08-07T07:54:27.226Z,1248.00
2022-08-07T07:55:27.207Z,1256.00
2022-08-07T07:56:30.617Z,1268.00
2022-08-07T07:57:51.882Z,1320.00
2022-08-07T07:58:28.170Z,1356.00
2022-08-07T07:59:51.447Z,1280.00
2022-08-07T08:00:31.279Z,1280.00
2022-08-07T08:02:01.571Z,1320.00
2022-08-07T08:02:34.024Z,1296.00
2022-08-07T08:04:09.366Z,1264.00
2022-08-07T08:04:28.150Z,1284.00
2022-08-07T08:05:30.226Z,1300.00
2022-08-07T08:06:28.080Z,1284.00
2022-08-07T08:07:35.773Z,1324.00
2022-08-07T08:08:35.777Z,1288.00
2022-08-07T08:09:29.625Z,1316.00
2022-08-07T08:10:38.207Z,1324.00
2022-08-07T08:11:59.921Z,1344.00
2022-08-07T08:12:51.962Z,1428.00
2022-08-07T08:13:36.657Z,1368.00
2022-08-07T08:14:27.989Z,1352.00
2022-08-07T08:15:26.995Z,1408.00
2022-08-07T08:16:29.914Z,1380.00
2022-08-07T08:17:57.423Z,1380.00
2022-08-07T08:18:27.945Z,1412.00
2022-08-07T08:20:17.446Z,1412.00
2022-08-07T08:20:31.967Z,1416.00
2022-08-07T08:22:00.702Z,1392.00
2022-08-07T08:22:28.376Z,1440.00
2022-08-07T08:23:28.156Z,1992.00
2022-08-07T08:24:36.125Z,1632.00
2022-08-07T08:25:42.924Z,1780.00
2022-08-07T08:26:27.852Z,1824.00
2022-08-07T08:27:28.703Z,1552.00
2022-08-07T08:28:38.774Z,1444.00
2022-08-07T08:29:27.822Z,1528.00
2022-08-07T08:30:26.884Z,1456.00
2022-08-07T08:31:58.685Z,1440.00
2022-08-07T08:32:38.691Z,1472.00
2022-08-07T08:33:28.737Z,1528.00
2022-08-07T08:34:29.203Z,1492.00
2022-08-07T08:35:42.919Z,1480.00
2022-08-07T08:36:29.798Z,1472.00
2022-08-07T08:38:01.657Z,1464.00
2022-08-07T08:38:29.255Z,1468.00
2022-08-07T08:39:39.514Z,1492.00
2022-08-07T08:40:28.363Z,1572.00
2022-08-07T08:41:56.911Z,1516.00
2022-08-07T08:42:27.675Z,1568.00
2022-08-07T08:43:32.101Z,1540.00
2022-08-07T08:44:29.349Z,1596.00
2022-08-07T08:45:41.872Z,1580.00
2022-08-07T08:46:32.651Z,1664.00
2022-08-07T08:47:26.621Z,1692.00
2022-08-07T08:48:28.549Z,1556.00
2022-08-07T08:49:32.740Z,1544.00
2022-08-07T08:50:34.760Z,1544.00
2022-08-07T08:51:49.797Z,1588.00
2022-08-07T08:52:30.327Z,1636.00
2022-08-07T08:53:29.499Z,1600.00
2022-08-07T08:54:26.542Z,1676.00
2022-08-07T08:55:54.868Z,1664.00
2022-08-07T08:56:27.519Z,1516.00
2022-08-07T08:57:34.192Z,1524.00
2022-08-07T08:58:28.981Z,1928.00
2022-08-07T08:59:26.487Z,1572.00
2022-08-07T09:00:28.669Z,1552.00
2022-08-07T09:01:29.983Z,1564.00
2022-08-07T09:02:36.446Z,1588.00
2022-08-07T09:03:49.398Z,1564.00
2022-08-07T09:04:28.864Z,1608.00
2022-08-07T09:05:37.394Z,1884.00
2022-08-07T09:06:27.411Z,1960.00
2022-08-07T09:07:26.399Z,3248.00
2022-08-07T09:08:31.415Z,1864.00
2022-08-07T09:09:33.265Z,1900.00
2022-08-07T09:10:27.379Z,4056.00
2022-08-07T09:11:50.603Z,2144.00
2022-08-07T09:12:30.925Z,1700.00
2022-08-07T09:13:36.751Z,1636.00
2022-08-07T09:14:29.574Z,1620.00
2022-08-07T09:16:23.468Z,1620.00
2022-08-07T09:16:30.144Z,1584.00
2022-08-07T09:17:26.550Z,1580.00
2022-08-07T09:18:27.926Z,1596.00
2022-08-07T09:19:51.716Z,1656.00
2022-08-07T09:20:35.913Z,1648.00
2022-08-07T09:21:34.098Z,1652.00
2022-08-07T09:24:28.224Z,1676.00
2022-08-07T09:24:32.668Z,1816.00
2022-08-07T09:24:32.765Z,1728.00
2022-08-07T09:25:27.193Z,2044.00
2022-08-07T09:26:26.180Z,2104.00
2022-08-07T09:27:27.390Z,2564.00
2022-08-07T09:30:04.534Z,14544.00
2022-08-07T09:30:05.007Z,3704.00
2022-08-07T09:30:32.163Z,19968.00
2022-08-07T09:31:26.128Z,12928.00
2022-08-07T09:32:27.114Z,12796.00
2022-08-07T09:33:52.552Z,27328.00
2022-08-07T09:34:27.197Z,41440.00
2022-08-07T09:36:01.338Z,28192.00
2022-08-07T09:36:28.579Z,12968.00
2022-08-07T09:37:33.533Z,3488.00
2022-08-07T09:38:27.072Z,3120.00
2022-08-07T09:39:53.705Z,3092.00
2022-08-07T09:40:27.197Z,4452.00
2022-08-07T09:41:36.419Z,8452.00
2022-08-07T09:42:32.931Z,8644.00
2022-08-07T09:43:40.043Z,10780.00
2022-08-07T09:44:36.181Z,17600.00
2022-08-07T09:47:23.619Z,4996.00
2022-08-07T09:47:49.986Z,8164.00
2022-08-07T09:47:58.160Z,3384.00
2022-08-07T09:48:30.001Z,8004.00
2022-08-07T09:50:00.530Z,16768.00
2022-08-07T09:50:26.939Z,16384.00
2022-08-07T09:52:16.758Z,36096.00
2022-08-07T09:52:34.866Z,15968.00
2022-08-07T09:53:25.882Z,3676.00
2022-08-07T09:54:27.267Z,6452.00
2022-08-07T09:55:29.475Z,2400.00
2022-08-07T09:56:37.634Z,2456.00
2022-08-07T09:57:27.983Z,2396.00
2022-08-07T09:58:32.175Z,2476.00
2022-08-07T09:59:35.835Z,2868.00
2022-08-07T10:00:29.813Z,7064.00
2022-08-07T10:01:51.391Z,2236.00
2022-08-07T10:02:29.579Z,2140.00
2022-08-07T10:04:03.097Z,2104.00
2022-08-07T10:04:28.400Z,2432.00
2022-08-07T10:05:59.034Z,2440.00
2022-08-07T10:06:27.370Z,2728.00
2022-08-07T10:07:31.476Z,2452.00
2022-08-07T10:08:26.715Z,5116.00
2022-08-07T10:09:43.011Z,4288.00
2022-08-07T10:10:28.181Z,2292.00
2022-08-07T10:12:01.459Z,2740.00
2022-08-07T10:12:26.666Z,2796.00
2022-08-07T10:13:54.908Z,2512.00
2022-08-07T10:14:31.678Z,2784.00
2022-08-07T10:15:25.644Z,5144.00
2022-08-07T10:16:25.623Z,3580.00
2022-08-07T10:17:25.611Z,3184.00
2022-08-07T10:18:26.316Z,3248.00
2022-08-07T10:19:25.588Z,3484.00
2022-08-07T10:20:30.561Z,3548.00
2022-08-07T10:21:50.668Z,3220.00
2022-08-07T10:22:33.870Z,3008.00
2022-08-07T10:24:05.880Z,4064.00
2022-08-07T10:24:26.533Z,3404.00
2022-08-07T10:25:42.062Z,2280.00
2022-08-07T10:26:26.510Z,2632.00
2022-08-07T10:27:25.511Z,2456.00
2022-08-07T10:28:25.504Z,2308.00
2022-08-07T10:29:25.479Z,2304.00
2022-08-07T10:30:26.598Z,4824.00
2022-08-07T10:31:25.454Z,3324.00
2022-08-07T10:32:51.043Z,2688.00
2022-08-07T10:34:05.866Z,3500.00
2022-08-07T10:34:27.260Z,16596.00
2022-08-07T10:35:26.422Z,9260.00
2022-08-07T10:36:36.275Z,3488.00
2022-08-07T10:38:00.684Z,3712.00
2022-08-07T10:38:35.955Z,3100.00
2022-08-07T10:39:41.305Z,4324.00
2022-08-07T10:40:30.390Z,5812.00
2022-08-07T10:41:52.192Z,2260.00
2022-08-07T10:42:31.114Z,2124.00
2022-08-07T10:43:34.236Z,2164.00
2022-08-07T10:44:28.790Z,2108.00
2022-08-07T10:45:29.362Z,2268.00
2022-08-07T10:46:26.287Z,2372.00
2022-08-07T10:47:51.408Z,2756.00
2022-08-07T10:48:34.554Z,45856.00
2022-08-07T10:49:49.815Z,2816.00
2022-08-07T10:50:26.610Z,5816.00
2022-08-07T10:51:39.712Z,18208.00
2022-08-07T10:52:33.553Z,20960.00
2022-08-07T10:53:26.211Z,2580.00
2022-08-07T10:54:25.199Z,6196.00
2022-08-07T10:55:36.885Z,11648.00
2022-08-07T10:56:31.626Z,9048.00
2022-08-07T10:57:34.473Z,14412.00
2022-08-07T10:58:33.130Z,12748.00
2022-08-07T10:59:30.470Z,2560.00
2022-08-07T11:00:36.523Z,3104.00
2022-08-07T11:01:35.335Z,3012.00
2022-08-07T11:02:33.645Z,2944.00
2022-08-07T11:03:28.077Z,10396.00
2022-08-07T11:04:32.148Z,9428.00
2022-08-07T11:05:35.667Z,6216.00
2022-08-07T11:06:26.760Z,28992.00
2022-08-07T11:08:00.450Z,31904.00
2022-08-07T11:08:29.127Z,94400.00
2022-08-07T11:10:08.893Z,85600.00
2022-08-07T11:10:27.546Z,91200.00
2022-08-07T11:11:25.012Z,38368.00
2022-08-07T11:12:31.624Z,30016.00
2022-08-07T11:14:44.285Z,13836.00
2022-08-07T11:14:44.865Z,12528.00
2022-08-07T11:15:26.271Z,4196.00
2022-08-07T11:16:30.464Z,22944.00
2022-08-07T11:17:43.304Z,6020.00
2022-08-07T11:18:25.933Z,21376.00
2022-08-07T11:19:27.221Z,17088.00
2022-08-07T11:20:29.985Z,31296.00
2022-08-07T11:21:24.906Z,9664.00
2022-08-07T11:22:33.323Z,19168.00
2022-08-07T11:23:30.430Z,91776.00
2022-08-07T11:24:25.869Z,59840.00
2022-08-07T11:25:24.869Z,45728.00
2022-08-07T11:26:24.846Z,95552.00
2022-08-07T11:28:00.773Z,101664.00
2022-08-07T11:28:25.826Z,101440.00
2022-08-07T11:29:43.539Z,45248.00
2022-08-07T11:30:39.131Z,96256.00
2022-08-07T11:31:33.304Z,104896.00
2022-08-07T11:32:25.649Z,104064.00
2022-08-07T11:33:54.289Z,85408.00
2022-08-07T11:34:25.758Z,79520.00
2022-08-07T11:35:26.800Z,42752.00
2022-08-07T11:36:25.438Z,12084.00
2022-08-07T11:37:25.728Z,16768.00
2022-08-07T11:38:28.129Z,11224.00
2022-08-07T11:39:24.778Z,2880.00
2022-08-07T11:40:24.745Z,2976.00
2022-08-07T11:42:00.287Z,2744.00
2022-08-07T11:42:30.692Z,3380.00
2022-08-07T11:43:41.535Z,2616.00
2022-08-07T11:44:25.672Z,2104.00
2022-08-07T11:45:34.692Z,2092.00
2022-08-07T11:46:25.627Z,2124.00
2022-08-07T11:47:26.117Z,2388.00
2022-08-07T11:48:29.677Z,2576.00
2022-08-07T11:49:27.579Z,3432.00
2022-08-07T11:50:32.355Z,3744.00
2022-08-07T11:51:41.415Z,21376.00
2022-08-07T11:52:29.396Z,41056.00
2022-08-07T11:53:25.549Z,13984.00
2022-08-07T11:54:25.415Z,21504.00
2022-08-07T11:56:08.977Z,36512.00
2022-08-07T11:56:28.129Z,17888.00
2022-08-07T11:57:57.677Z,30528.00
2022-08-07T11:58:33.429Z,51040.00
2022-08-07T12:00:10.576Z,94240.00
2022-08-07T12:00:28.332Z,109056.00
2022-08-07T12:01:24.625Z,112288.00
2022-08-07T12:02:30.211Z,110752.00
2022-08-07T12:03:44.666Z,109568.00
2022-08-07T12:04:25.435Z,106432.00
2022-08-07T12:05:28.536Z,107744.00
2022-08-07T12:06:36.923Z,105632.00
2022-08-07T12:07:27.193Z,103680.00
2022-08-07T12:08:26.110Z,102848.00
2022-08-07T12:09:25.376Z,104096.00
2022-08-07T12:10:24.381Z,101440.00
2022-08-07T12:11:24.359Z,101120.00
2022-08-07T12:12:25.349Z,102944.00
2022-08-07T12:13:35.688Z,99200.00
2022-08-07T12:14:25.327Z,102976.00
2022-08-07T12:15:57.963Z,99968.00
2022-08-07T12:16:28.932Z,96480.00
2022-08-07T12:17:25.295Z,102432.00
2022-08-07T12:18:29.909Z,96288.00
2022-08-07T12:19:35.613Z,92992.00
2022-08-07T12:20:30.658Z,91744.00
2022-08-07T12:22:35.917Z,92192.00
2022-08-07T12:22:39.260Z,95232.00
2022-08-07T12:24:04.845Z,90592.00
2022-08-07T12:24:38.081Z,96768.00
2022-08-07T12:26:02.977Z,99840.00
2022-08-07T12:26:29.771Z,102272.00
2022-08-07T12:27:27.964Z,103008.00
2022-08-07T12:28:31.332Z,99072.00
2022-08-07T12:29:37.862Z,96032.00
2022-08-07T12:30:30.192Z,97472.00
2022-08-07T12:31:24.147Z,94208.00
2022-08-07T12:32:24.148Z,91008.00
2022-08-07T12:33:30.860Z,96192.00
2022-08-07T12:34:25.892Z,90592.00
2022-08-07T12:35:24.194Z,91040.00
2022-08-07T12:36:32.626Z,101824.00
2022-08-07T12:37:28.459Z,94976.00
2022-08-07T12:38:36.966Z,42144.00
2022-08-07T12:39:42.682Z,2872.00
2022-08-07T12:40:46.356Z,2140.00
2022-08-07T12:41:49.224Z,1996.00
2022-08-07T12:42:27.621Z,1916.00
2022-08-07T12:44:02.762Z,1800.00
2022-08-07T12:44:25.018Z,1816.00
2022-08-07T12:45:24.014Z,1804.00
2022-08-07T12:46:26.256Z,1788.00
2022-08-07T12:47:26.962Z,1772.00
2022-08-07T12:48:27.758Z,1756.00
2022-08-07T12:49:39.523Z,1748.00
2022-08-07T12:50:38.552Z,1724.00
2022-08-07T12:51:33.404Z,1708.00
2022-08-07T12:52:30.221Z,1692.00
2022-08-07T12:53:23.918Z,1676.00
2022-08-07T12:54:38.953Z,1668.00
2022-08-07T12:55:40.736Z,1660.00
2022-08-07T12:56:24.947Z,1648.00
2022-08-07T12:57:23.878Z,1624.00
2022-08-07T12:58:28.054Z,1600.00
2022-08-07T12:59:24.883Z,1616.00
2022-08-07T13:00:32.956Z,1616.00
2022-08-07T13:01:32.025Z,1612.00
2022-08-07T13:02:25.939Z,1612.00
2022-08-07T13:04:00.559Z,1600.00
2022-08-07T13:04:34.650Z,1596.00
2022-08-07T13:06:05.021Z,1600.00
2022-08-07T13:06:27.551Z,1640.00
2022-08-07T13:08:13.899Z,1620.00
2022-08-07T13:08:25.833Z,1604.00
2022-08-07T13:10:22.067Z,1604.00
2022-08-07T13:10:39.376Z,1600.00
2022-08-07T13:11:24.787Z,1600.00
2022-08-07T13:12:23.783Z,1620.00
2022-08-07T13:13:48.698Z,1748.00
2022-08-07T13:14:24.697Z,1684.00
2022-08-07T13:15:29.517Z,1604.00
2022-08-07T13:16:29.731Z,1600.00
2022-08-07T13:17:23.783Z,1576.00
2022-08-07T13:18:26.262Z,1568.00
2022-08-07T13:19:46.279Z,1572.00
2022-08-07T13:20:27.876Z,1568.00
2022-08-07T13:21:50.153Z,1556.00
2022-08-07T13:22:28.133Z,1556.00
2022-08-07T13:24:01.021Z,1556.00
2022-08-07T13:24:25.871Z,1552.00
2022-08-07T13:25:28.886Z,1552.00
2022-08-07T13:26:26.430Z,1560.00
2022-08-07T13:27:23.557Z,1556.00
2022-08-07T13:28:25.209Z,1564.00
2022-08-07T13:29:28.548Z,1552.00
2022-08-07T13:30:41.012Z,1556.00
2022-08-07T13:31:24.507Z,1556.00
2022-08-07T13:32:32.219Z,1564.00
2022-08-07T13:34:32.034Z,1552.00
2022-08-07T13:34:32.872Z,1552.00
2022-08-07T13:35:24.462Z,1564.00
2022-08-07T13:36:25.905Z,1552.00
2022-08-07T13:37:23.928Z,1560.00
2022-08-07T13:38:23.661Z,1548.00
2022-08-07T13:39:49.191Z,1548.00
2022-08-07T13:40:35.529Z,1556.00
2022-08-07T13:41:24.414Z,1556.00
2022-08-07T13:42:25.012Z,1548.00
2022-08-07T13:43:23.376Z,1556.00
2022-08-07T13:44:26.140Z,1560.00
2022-08-07T13:46:12.414Z,1552.00
2022-08-07T13:46:28.798Z,1544.00
2022-08-07T13:48:05.454Z,1556.00
2022-08-07T13:48:34.130Z,1564.00
2022-08-07T13:50:32.842Z,1552.00
2022-08-07T13:50:32.911Z,1540.00
2022-08-07T13:52:22.467Z,1536.00
2022-08-07T13:52:36.185Z,1544.00
2022-08-07T13:53:24.269Z,1528.00
2022-08-07T13:54:23.966Z,1532.00
2022-08-07T13:55:26.487Z,1592.00
2022-08-07T13:56:36.000Z,1552.00
2022-08-07T13:57:24.406Z,1532.00
2022-08-07T13:58:27.642Z,1540.00
2022-08-07T13:59:24.197Z,1536.00
2022-08-07T14:00:26.115Z,1524.00
2022-08-07T14:01:23.176Z,1512.00
2022-08-07T14:02:29.696Z,1520.00
2022-08-07T14:03:30.078Z,1504.00
2022-08-07T14:04:24.191Z,1520.00
2022-08-07T14:05:24.215Z,1512.00
2022-08-07T14:06:24.735Z,1516.00
2022-08-07T14:07:23.652Z,1520.00
2022-08-07T14:08:23.145Z,1492.00
2022-08-07T14:10:02.488Z,1508.00
2022-08-07T14:10:28.151Z,1548.00
2022-08-07T14:11:24.064Z,1548.00
2022-08-07T14:12:27.624Z,1528.00
2022-08-07T14:13:33.394Z,1496.00
2022-08-07T14:14:23.061Z,1500.00
2022-08-07T14:15:23.913Z,1472.00
2022-08-07T14:16:27.194Z,1456.00
2022-08-07T14:17:51.476Z,1488.00
2022-08-07T14:18:28.527Z,1484.00
2022-08-07T14:20:39.811Z,1484.00
2022-08-07T14:20:41.938Z,1516.00
2022-08-07T14:22:02.345Z,1484.00
2022-08-07T14:22:34.424Z,1480.00
2022-08-07T14:23:54.656Z,1484.00
2022-08-07T14:24:28.939Z,1480.00
2022-08-07T14:25:22.934Z,1480.00
2022-08-07T14:26:30.461Z,1472.00
2022-08-07T14:30:04.955Z,1468.00
2022-08-07T14:30:33.179Z,1468.00
2022-08-07T14:31:23.866Z,1468.00
2022-08-07T14:32:24.943Z,1444.00
2022-08-07T14:33:23.600Z,1448.00
2022-08-07T14:34:27.200Z,1448.00
2022-08-07T14:35:44.778Z,1456.00
2022-08-07T14:36:23.838Z,1452.00
2022-08-07T14:37:32.916Z,1448.00
2022-08-07T14:38:26.721Z,1452.00
2022-08-07T14:40:26.653Z,1452.00
2022-08-07T14:41:34.114Z,1516.00
2022-08-07T14:42:23.718Z,1428.00
2022-08-07T14:43:58.779Z,1432.00
2022-08-07T14:44:24.302Z,1424.00
2022-08-07T14:45:22.734Z,1416.00
2022-08-07T14:46:31.187Z,1400.00
2022-08-07T14:47:22.669Z,1412.00
2022-08-07T14:48:27.347Z,1404.00
2022-08-07T14:49:57.150Z,1404.00
2022-08-07T14:50:23.630Z,1404.00
2022-08-07T14:51:22.623Z,1408.00
2022-08-07T14:54:05.817Z,1384.00
2022-08-07T14:54:30.876Z,1388.00
2022-08-07T14:55:23.578Z,1392.00
2022-08-07T14:56:29.846Z,1392.00
2022-08-07T14:57:54.412Z,1388.00
2022-08-07T14:58:24.828Z,1388.00
2022-08-07T15:00:30.665Z,1388.00
2022-08-07T15:01:23.515Z,1404.00
2022-08-07T15:02:33.111Z,1392.00
2022-08-07T15:03:23.535Z,1404.00
2022-08-07T15:04:25.116Z,1372.00
2022-08-07T15:05:23.667Z,1376.00
2022-08-07T15:06:22.480Z,1360.00
2022-08-07T15:07:22.446Z,1348.00
2022-08-07T15:09:57.691Z,1352.00
2022-08-07T15:13:25.290Z,1368.00
2022-08-07T15:14:22.432Z,1388.00
2022-08-07T15:15:22.788Z,1368.00
2022-08-07T15:16:33.541Z,1324.00
2022-08-07T15:17:23.335Z,1340.00
2022-08-07T15:18:28.418Z,1324.00
2022-08-07T15:21:44.394Z,1316.00
2022-08-07T15:22:31.451Z,1316.00
2022-08-07T15:23:53.548Z,1308.00
2022-08-07T15:25:15.511Z,1300.00
2022-08-07T15:25:23.246Z,1292.00
2022-08-07T15:26:22.409Z,1272.00
2022-08-07T15:27:22.297Z,1284.00
2022-08-07T15:28:34.520Z,1284.00
2022-08-07T15:30:04.693Z,1288.00
2022-08-07T15:30:28.214Z,1272.00
2022-08-07T15:32:01.161Z,1276.00
2022-08-07T15:32:39.731Z,1284.00
2022-08-07T15:33:23.156Z,1276.00
2022-08-07T15:34:26.088Z,1280.00
2022-08-07T15:37:02.456Z,1260.00
2022-08-07T15:38:31.110Z,1260.00
2022-08-07T15:39:23.142Z,1260.00
2022-08-07T15:42:43.289Z,1240.00
2022-08-07T15:43:33.187Z,1240.00
2022-08-07T15:44:23.464Z,1200.00
2022-08-07T15:45:22.026Z,1228.00
2022-08-07T15:46:31.505Z,1200.00
2022-08-07T15:48:00.120Z,1168.00
2022-08-07T15:48:22.989Z,1108.00
2022-08-07T15:49:25.475Z,1084.00
2022-08-07T15:50:37.986Z,1104.00
2022-08-07T15:51:22.959Z,1084.00
2022-08-07T15:52:30.022Z,1056.00
2022-08-07T15:53:21.937Z,1032.00
2022-08-07T15:54:21.960Z,1040.00
2022-08-07T15:55:23.243Z,1084.00
2022-08-07T15:56:24.086Z,1056.00
2022-08-07T15:57:40.250Z,1072.00
2022-08-07T15:58:22.879Z,1072.00
2022-08-07T15:59:40.104Z,1080.00
2022-08-07T16:00:33.454Z,1100.00
2022-08-07T16:01:22.896Z,1096.00
2022-08-07T16:02:27.346Z,1096.00
2022-08-07T16:03:46.074Z,1132.00
2022-08-07T16:04:22.813Z,1136.00
2022-08-07T16:05:23.153Z,1148.00
2022-08-07T16:06:22.796Z,1144.00
2022-08-07T16:08:31.521Z,1128.00
2022-08-07T16:08:32.989Z,1144.00
2022-08-07T16:09:23.110Z,1132.00
2022-08-07T16:10:21.780Z,1132.00
2022-08-07T16:11:27.373Z,1104.00
2022-08-07T16:12:28.631Z,1084.00
2022-08-07T16:13:58.064Z,1080.00
2022-08-07T16:14:27.729Z,1084.00
2022-08-07T16:15:56.375Z,1092.00
2022-08-07T16:16:48.320Z,1092.00
2022-08-07T16:18:02.888Z,1092.00
2022-08-07T16:18:49.379Z,1096.00
2022-08-07T16:19:43.194Z,1088.00
2022-08-07T16:20:33.362Z,1080.00
2022-08-07T16:22:01.929Z,1080.00